Terminal Aerodrome Forecast
Issued by NWS Cleveland, OH

Home | Current Version | Previous Version | Graphics & Text | Print | Product List | Glossary On
Versions: 1 2 3 4 5 6 7 8 9 10 11 12 13 14 15 16 17 18
984
FTUS41 KCLE 190322 AAA
TAFERI
TAF AMD
KERI 190322Z 1903/1924 28015G25KT 4SM -SHRA BKN008 OVC012
     FM190500 31020G38KT 3SM -SHRA OVC007
     FM191400 29018G30KT P6SM -SHRA OVC015
     FM192100 28015G25KT P6SM -SHSNRA OVC035=

USA.gov is the U.S. government's official web portal to all federal, state and local government web resources and services.